Time;durP1;ratioP1;P1;durP2;ratioP2;P2;SDS_P1;SDS_P2;PMS_P1;PMS_P2;Temp;Humidity;BMP_temperature;BMP_pressure;BME280_temperature;BME280_humidity;BME280_pressure;Samples;Min_cycle;Max_cycle;Signal;HPM_P1;HPM_P2
2021/10/23 00:01:43;;;;;;;25.92;17.10;;;11.00;99.90;;;;;;5091201;28;20077;-76
2021/10/23 00:04:09;;;;;;;41.47;21.27;;;11.00;99.90;;;;;;5091437;28;20028;-76
2021/10/23 00:06:34;;;;;;;31.13;16.17;;;11.00;99.90;;;;;;5086029;28;20471;-75
2021/10/23 00:09:00;;;;;;;27.02;18.83;;;11.00;99.90;;;;;;5089843;28;20637;-76
2021/10/23 00:11:26;;;;;;;27.75;17.17;;;11.00;99.90;;;;;;5091350;28;20122;-76
2021/10/23 00:13:51;;;;;;;28.10;15.27;;;11.00;99.90;;;;;;5090797;28;20407;-76
2021/10/23 00:16:17;;;;;;;22.90;13.13;;;11.00;99.90;;;;;;5086651;28;20054;-78
2021/10/23 00:18:42;;;;;;;29.85;13.63;;;11.00;99.90;;;;;;5088584;28;20044;-79
2021/10/23 00:21:08;;;;;;;24.05;12.35;;;11.00;99.90;;;;;;5090902;28;20097;-79
2021/10/23 00:23:34;;;;;;;24.67;13.95;;;11.00;99.90;;;;;;5091554;28;20022;-79
2021/10/23 00:25:59;;;;;;;24.27;15.20;;;11.00;99.90;;;;;;5089532;28;20070;-77
2021/10/23 00:28:25;;;;;;;34.63;17.92;;;11.10;99.90;;;;;;5091529;28;20091;-76
2021/10/23 00:30:51;;;;;;;19.88;13.82;;;11.10;99.90;;;;;;5090991;28;20395;-76
2021/10/23 00:33:16;;;;;;;32.42;19.23;;;11.10;99.90;;;;;;5090220;28;20046;-77
2021/10/23 00:35:42;;;;;;;31.27;20.20;;;11.10;99.90;;;;;;5072290;28;20023;-78
2021/10/23 00:38:08;;;;;;;43.88;25.02;;;11.10;99.90;;;;;;5090757;28;20634;-79
2021/10/23 00:40:33;;;;;;;47.97;26.38;;;11.10;99.90;;;;;;5092719;28;20036;-77
2021/10/23 00:42:59;;;;;;;36.42;23.13;;;11.10;99.90;;;;;;5093837;28;20028;-77
2021/10/23 00:45:26;;;;;;;43.50;26.40;;;11.10;99.90;;;;;;5094600;28;20024;-79
2021/10/23 00:47:52;;;;;;;47.25;22.58;;;11.10;99.90;;;;;;5096121;28;20439;-79
2021/10/23 00:50:18;;;;;;;39.65;23.67;;;11.20;99.90;;;;;;5095619;28;20066;-77
2021/10/23 00:52:44;;;;;;;38.88;23.48;;;11.20;99.90;;;;;;5095200;28;20056;-79
2021/10/23 00:55:10;;;;;;;46.90;25.58;;;11.20;99.90;;;;;;5095912;28;20417;-76
2021/10/23 00:57:37;;;;;;;40.05;24.17;;;11.20;99.90;;;;;;5095461;28;20416;-76
2021/10/23 01:00:05;;;;;;;39.10;24.23;;;11.20;99.90;;;;;;5096363;28;20020;-76
2021/10/23 01:02:31;;;;;;;41.35;24.50;;;11.20;99.90;;;;;;5095711;28;20042;-76
2021/10/23 01:04:56;;;;;;;61.72;29.25;;;11.20;99.90;;;;;;5095895;28;20024;-76
2021/10/23 01:07:22;;;;;;;40.20;22.98;;;11.20;99.90;;;;;;5096077;28;20024;-76
2021/10/23 01:09:48;;;;;;;42.35;23.38;;;11.20;99.90;;;;;;5096326;28;20020;-76
2021/10/23 01:12:14;;;;;;;48.00;24.80;;;11.30;99.90;;;;;;5095937;28;20039;-77
2021/10/23 01:14:41;;;;;;;38.83;17.55;;;11.30;99.90;;;;;;5096194;28;20024;-79
2021/10/23 01:17:07;;;;;;;36.70;18.60;;;11.20;99.90;;;;;;5093220;28;20089;-79
2021/10/23 01:19:33;;;;;;;37.38;19.55;;;11.30;99.90;;;;;;5074880;28;20032;-78
2021/10/23 01:22:00;;;;;;;37.88;19.55;;;11.30;99.90;;;;;;5075558;28;20056;-79
2021/10/23 01:24:25;;;;;;;39.50;21.05;;;11.30;99.90;;;;;;5075779;28;20472;-76
2021/10/23 01:26:52;;;;;;;37.78;21.42;;;11.30;99.90;;;;;;5089745;28;20046;-78
2021/10/23 01:29:19;;;;;;;37.25;21.38;;;11.30;99.90;;;;;;5077794;28;20022;-78
2021/10/23 01:31:47;;;;;;;36.03;22.48;;;11.30;99.90;;;;;;5095720;28;20054;-79
2021/10/23 01:34:17;;;;;;;38.63;19.70;;;11.30;99.90;;;;;;5095734;28;20020;-79
2021/10/23 01:36:46;;;;;;;38.28;20.25;;;11.30;99.90;;;;;;5095269;28;20115;-79
2021/10/23 01:39:12;;;;;;;51.00;22.20;;;11.30;99.90;;;;;;5095699;28;20027;-79
2021/10/23 01:41:39;;;;;;;35.75;20.95;;;11.40;99.90;;;;;;5095096;28;20553;-79
2021/10/23 01:44:07;;;;;;;38.08;21.80;;;11.40;99.90;;;;;;5095261;28;20020;-79
2021/10/23 01:46:33;;;;;;;34.58;19.88;;;11.40;99.90;;;;;;5095355;28;20072;-79
2021/10/23 01:48:59;;;;;;;31.42;18.67;;;11.40;99.90;;;;;;5078121;28;20111;-77
2021/10/23 01:51:26;;;;;;;36.50;21.70;;;11.40;99.90;;;;;;5101380;28;20023;-76
2021/10/23 01:53:51;;;;;;;43.53;23.73;;;11.40;99.90;;;;;;5095475;28;20024;-76
2021/10/23 01:56:17;;;;;;;43.53;23.75;;;11.40;99.90;;;;;;5093453;28;20024;-76
2021/10/23 01:58:42;;;;;;;48.63;25.58;;;11.30;99.90;;;;;;5095237;28;20360;-79
2021/10/23 02:01:08;;;;;;;38.90;24.60;;;11.40;99.90;;;;;;5094614;28;20040;-79
2021/10/23 02:03:34;;;;;;;41.67;24.10;;;11.40;99.90;;;;;;5094860;28;20562;-77
2021/10/23 02:05:59;;;;;;;39.58;23.80;;;11.40;99.90;;;;;;5094899;28;20383;-77
2021/10/23 02:08:25;;;;;;;40.78;22.38;;;11.40;99.90;;;;;;5076803;28;20107;-79
2021/10/23 02:10:50;;;;;;;50.33;27.00;;;11.40;99.90;;;;;;5074714;28;20043;-77
2021/10/23 02:13:16;;;;;;;42.28;23.85;;;11.40;99.90;;;;;;5074755;28;20521;-79
2021/10/23 02:15:41;;;;;;;43.25;24.70;;;11.40;99.90;;;;;;5074600;28;20035;-78
2021/10/23 02:18:07;;;;;;;52.03;27.40;;;11.50;99.90;;;;;;5074043;28;20020;-77
2021/10/23 02:20:34;;;;;;;39.85;22.75;;;11.40;99.90;;;;;;5073918;28;20123;-78
2021/10/23 02:23:01;;;;;;;62.03;30.40;;;11.40;99.90;;;;;;5085537;28;20024;-79
2021/10/23 02:25:27;;;;;;;52.78;26.52;;;11.40;99.90;;;;;;5076451;28;20154;-79
2021/10/23 02:27:52;;;;;;;49.15;25.70;;;11.40;99.90;;;;;;5094243;28;20060;-78
2021/10/23 02:30:18;;;;;;;38.40;23.75;;;11.40;99.90;;;;;;5094242;28;20074;-79
2021/10/23 02:32:43;;;;;;;37.97;22.70;;;11.40;99.90;;;;;;5093227;28;20028;-76
2021/10/23 02:35:09;;;;;;;42.03;23.08;;;11.30;99.90;;;;;;5092487;28;20020;-75
2021/10/23 02:37:36;;;;;;;46.30;25.20;;;11.30;99.90;;;;;;5092701;28;20020;-76
2021/10/23 02:40:02;;;;;;;65.82;28.83;;;11.30;99.90;;;;;;5092850;28;20028;-76
2021/10/23 02:42:28;;;;;;;50.13;24.65;;;11.30;99.90;;;;;;5092260;28;20115;-76
2021/10/23 02:44:53;;;;;;;41.65;24.50;;;11.30;99.90;;;;;;5093142;28;20103;-75
2021/10/23 02:47:19;;;;;;;53.38;26.38;;;11.30;99.90;;;;;;5093430;28;20093;-76
2021/10/23 02:49:45;;;;;;;42.13;22.58;;;11.20;99.90;;;;;;5092498;28;20095;-76
2021/10/23 02:52:10;;;;;;;45.28;24.77;;;11.20;99.90;;;;;;5092597;28;20027;-75
2021/10/23 02:54:36;;;;;;;45.78;25.38;;;11.20;99.90;;;;;;5093828;28;20099;-75
2021/10/23 02:57:01;;;;;;;46.40;26.10;;;11.20;99.90;;;;;;5093986;28;20016;-76
2021/10/23 02:59:27;;;;;;;41.65;23.90;;;11.30;99.90;;;;;;5092627;28;20467;-75
2021/10/23 03:01:52;;;;;;;46.85;25.60;;;11.30;99.90;;;;;;5093744;28;20488;-75
2021/10/23 03:04:18;;;;;;;44.95;24.70;;;11.30;99.90;;;;;;5093690;28;20440;-75
2021/10/23 03:06:44;;;;;;;50.85;26.45;;;11.30;99.90;;;;;;5093866;28;20455;-75
2021/10/23 03:09:14;;;;;;;72.72;27.92;;;11.30;99.90;;;;;;5093978;28;20425;-75
2021/10/23 03:11:40;;;;;;;42.20;22.30;;;11.20;99.90;;;;;;5093686;28;20028;-75
2021/10/23 03:14:06;;;;;;;40.08;20.10;;;11.20;99.90;;;;;;5093516;28;20043;-75
2021/10/23 03:16:32;;;;;;;34.38;20.05;;;11.20;99.90;;;;;;5091736;28;20419;-75
2021/10/23 03:18:57;;;;;;;36.38;22.02;;;11.10;99.90;;;;;;5092719;28;20374;-75
2021/10/23 03:21:23;;;;;;;38.60;21.88;;;11.00;99.90;;;;;;5090882;28;20028;-75
2021/10/23 03:23:49;;;;;;;36.97;21.23;;;11.00;99.90;;;;;;5073441;28;20514;-75
2021/10/23 03:26:15;;;;;;;32.97;18.98;;;11.10;99.90;;;;;;5072514;28;20464;-75
2021/10/23 03:28:41;;;;;;;48.67;22.50;;;11.20;99.90;;;;;;5077050;28;20043;-75
2021/10/23 03:31:06;;;;;;;47.13;21.77;;;11.20;99.90;;;;;;5073350;28;20021;-75
2021/10/23 03:33:32;;;;;;;37.90;21.08;;;11.10;99.90;;;;;;5073149;28;20039;-75
2021/10/23 03:35:57;;;;;;;38.17;21.73;;;11.20;99.90;;;;;;5073681;28;20154;-75
2021/10/23 03:38:23;;;;;;;36.55;21.40;;;11.20;99.90;;;;;;5075251;28;20165;-75
2021/10/23 03:40:48;;;;;;;44.88;23.42;;;11.20;99.90;;;;;;5093245;28;20032;-75
2021/10/23 03:43:14;;;;;;;38.28;22.00;;;11.20;99.90;;;;;;5092822;28;20028;-75
2021/10/23 03:45:40;;;;;;;38.28;22.05;;;11.20;99.90;;;;;;5093280;28;20047;-75
2021/10/23 03:48:05;;;;;;;42.38;23.42;;;11.10;99.90;;;;;;5092999;28;20020;-75
2021/10/23 03:50:31;;;;;;;40.70;22.90;;;11.10;99.90;;;;;;5090989;28;20028;-75
2021/10/23 03:52:57;;;;;;;75.30;28.30;;;11.10;99.90;;;;;;5092765;28;20028;-75
2021/10/23 03:55:22;;;;;;;38.05;20.70;;;11.10;99.90;;;;;;5092960;28;20024;-75
2021/10/23 03:57:48;;;;;;;37.63;20.95;;;11.10;99.90;;;;;;5074616;28;20024;-75
2021/10/23 04:00:14;;;;;;;39.65;22.73;;;11.10;99.90;;;;;;5093291;28;20080;-75
2021/10/23 04:02:40;;;;;;;46.05;23.05;;;11.10;99.90;;;;;;5075191;28;20027;-75
2021/10/23 04:05:06;;;;;;;47.35;23.67;;;11.10;99.90;;;;;;5092576;28;20432;-75
2021/10/23 04:07:32;;;;;;;43.40;23.95;;;11.10;99.90;;;;;;5092677;28;20035;-74
2021/10/23 04:09:59;;;;;;;42.08;21.65;;;11.10;99.90;;;;;;5094490;28;20020;-75
2021/10/23 04:12:25;;;;;;;43.65;23.33;;;11.10;99.90;;;;;;5099789;28;20392;-75
2021/10/23 04:14:50;;;;;;;38.03;21.67;;;11.10;99.90;;;;;;5097389;28;20089;-75
2021/10/23 04:17:16;;;;;;;46.78;24.60;;;11.10;99.90;;;;;;5097163;28;20016;-75
2021/10/23 04:19:42;;;;;;;36.47;20.33;;;11.10;99.90;;;;;;5078828;28;20500;-75
2021/10/23 04:22:07;;;;;;;37.40;21.70;;;11.10;99.90;;;;;;5078507;28;20031;-75
2021/10/23 04:24:33;;;;;;;36.58;21.40;;;11.10;99.90;;;;;;5096028;28;20012;-75
2021/10/23 04:26:58;;;;;;;45.40;21.85;;;11.10;99.90;;;;;;5096357;28;20024;-75
2021/10/23 04:29:24;;;;;;;47.40;24.15;;;11.10;99.90;;;;;;5097031;28;20426;-75
2021/10/23 04:31:50;;;;;;;37.22;20.98;;;11.10;99.90;;;;;;5096315;28;20024;-75
2021/10/23 04:34:15;;;;;;;38.30;21.88;;;11.10;99.90;;;;;;5097081;28;20026;-75
2021/10/23 04:36:42;;;;;;;44.72;22.40;;;11.10;99.90;;;;;;5096884;28;20032;-75
2021/10/23 04:39:08;;;;;;;41.67;21.50;;;11.10;99.90;;;;;;5096954;28;20070;-75
2021/10/23 04:41:35;;;;;;;36.00;21.00;;;11.10;99.90;;;;;;5077625;28;20044;-75
2021/10/23 04:44:00;;;;;;;38.80;22.55;;;11.10;99.90;;;;;;5079805;28;20491;-75
2021/10/23 04:46:26;;;;;;;34.88;20.45;;;11.00;99.90;;;;;;5076286;28;20096;-75
2021/10/23 04:48:51;;;;;;;41.95;23.35;;;11.00;99.90;;;;;;5082827;28;20383;-75
2021/10/23 04:51:17;;;;;;;49.45;25.08;;;11.00;99.90;;;;;;5095963;28;20110;-75
2021/10/23 04:53:43;;;;;;;47.25;23.77;;;11.00;99.90;;;;;;5096469;28;20028;-75
2021/10/23 04:56:08;;;;;;;41.60;23.70;;;11.00;99.90;;;;;;5095702;28;20103;-75
2021/10/23 04:58:37;;;;;;;47.03;24.00;;;11.00;99.90;;;;;;5095918;28;20031;-75
2021/10/23 05:01:03;;;;;;;48.03;23.50;;;11.00;99.90;;;;;;5096466;28;20028;-75
2021/10/23 05:03:29;;;;;;;50.80;25.92;;;11.00;99.90;;;;;;5096182;28;20026;-75
2021/10/23 05:05:55;;;;;;;59.83;29.05;;;10.90;99.90;;;;;;5095716;28;20086;-75
2021/10/23 05:08:20;;;;;;;49.72;25.38;;;10.90;99.90;;;;;;5096269;28;20065;-75
2021/10/23 05:10:47;;;;;;;62.55;31.10;;;10.90;99.90;;;;;;5095955;28;20032;-75
2021/10/23 05:13:13;;;;;;;48.35;26.95;;;10.90;99.90;;;;;;5096034;28;20020;-75
2021/10/23 05:15:38;;;;;;;59.90;29.05;;;10.90;99.90;;;;;;5096118;28;20020;-75
2021/10/23 05:18:04;;;;;;;62.92;30.70;;;11.00;99.90;;;;;;5095554;28;20031;-75
2021/10/23 05:20:30;;;;;;;55.92;29.63;;;10.90;99.90;;;;;;5077871;28;20021;-75
2021/10/23 05:22:55;;;;;;;83.22;37.58;;;11.00;99.90;;;;;;5095609;28;20085;-75
2021/10/23 05:25:21;;;;;;;65.72;33.17;;;11.00;99.90;;;;;;5095513;28;20399;-75
2021/10/23 05:27:47;;;;;;;89.30;38.65;;;11.00;99.90;;;;;;5094388;28;20357;-75
2021/10/23 05:30:12;;;;;;;82.03;37.97;;;11.00;99.90;;;;;;5095850;28;20031;-75
2021/10/23 05:32:39;;;;;;;65.90;33.53;;;11.00;99.90;;;;;;5095702;28;20139;-75
2021/10/23 05:35:05;;;;;;;91.13;38.03;;;11.00;99.90;;;;;;5095466;28;20095;-75
2021/10/23 05:37:30;;;;;;;86.50;36.30;;;11.00;99.90;;;;;;5095403;28;20051;-75
2021/10/23 05:39:56;;;;;;;83.82;38.80;;;11.00;99.90;;;;;;5095377;28;20063;-75
2021/10/23 05:42:22;;;;;;;68.47;33.20;;;11.10;99.90;;;;;;5095304;28;20036;-75
2021/10/23 05:44:47;;;;;;;83.55;38.53;;;11.10;99.90;;;;;;5095511;28;20032;-75
2021/10/23 05:47:13;;;;;;;110.68;43.55;;;11.00;99.90;;;;;;5095259;28;20024;-75
2021/10/23 05:49:39;;;;;;;63.85;34.13;;;11.00;99.90;;;;;;5095630;28;20031;-75
2021/10/23 05:52:05;;;;;;;58.88;32.53;;;11.10;99.90;;;;;;5095152;28;20024;-75
2021/10/23 05:54:36;;;;;;;71.18;36.75;;;11.10;99.90;;;;;;5095189;28;20023;-75
2021/10/23 05:57:07;;;;;;;88.30;37.85;;;11.20;99.90;;;;;;5095014;28;20016;-75
2021/10/23 05:59:34;;;;;;;65.40;33.13;;;11.10;99.90;;;;;;5095092;28;20056;-75
2021/10/23 06:02:11;;;;;;;66.60;31.98;;;11.20;99.90;;;;;;5094576;28;20473;-75
2021/10/23 06:04:36;;;;;;;66.60;36.13;;;11.20;99.90;;;;;;5095353;28;20104;-75
2021/10/23 06:07:04;;;;;;;68.22;35.45;;;11.20;99.90;;;;;;5094383;28;20446;-75
2021/10/23 06:09:31;;;;;;;67.60;34.58;;;11.20;99.90;;;;;;5093862;28;20032;-75
2021/10/23 06:12:00;;;;;;;66.88;35.85;;;11.20;99.90;;;;;;5094917;28;20028;-75
2021/10/23 06:14:25;;;;;;;67.78;34.03;;;11.20;99.90;;;;;;5076732;28;20426;-75
2021/10/23 06:16:51;;;;;;;63.67;34.33;;;11.30;99.90;;;;;;5094733;28;20038;-74
2021/10/23 06:19:16;;;;;;;66.80;35.00;;;11.20;99.90;;;;;;5095007;28;20460;-74
2021/10/23 06:21:42;;;;;;;64.70;33.45;;;11.30;99.90;;;;;;5094602;28;20047;-75
2021/10/23 06:24:07;;;;;;;68.13;33.50;;;11.30;99.90;;;;;;5094538;28;20111;-75
2021/10/23 06:26:33;;;;;;;72.18;37.13;;;11.30;99.90;;;;;;5094920;28;20062;-75
2021/10/23 06:28:59;;;;;;;58.88;34.85;;;11.30;99.90;;;;;;5087636;28;20021;-75
2021/10/23 06:31:25;;;;;;;65.80;33.90;;;11.30;99.90;;;;;;5075976;28;20478;-75
2021/10/23 06:33:51;;;;;;;56.05;31.08;;;11.30;99.90;;;;;;5094632;28;20031;-75
2021/10/23 06:36:17;;;;;;;58.35;32.55;;;11.30;99.90;;;;;;5077331;28;20091;-75
2021/10/23 06:38:42;;;;;;;82.95;37.25;;;11.30;99.90;;;;;;5082677;28;20040;-75
2021/10/23 06:41:08;;;;;;;75.82;36.50;;;11.30;99.90;;;;;;5075238;28;20036;-75
2021/10/23 06:43:33;;;;;;;68.28;34.85;;;11.30;99.90;;;;;;5076081;28;20040;-75
2021/10/23 06:45:59;;;;;;;63.38;34.13;;;11.30;99.90;;;;;;5094406;28;20032;-75
2021/10/23 06:48:24;;;;;;;61.40;34.17;;;11.40;99.90;;;;;;5094027;28;20020;-75
2021/10/23 06:50:50;;;;;;;66.10;34.03;;;11.40;99.90;;;;;;5094168;28;20479;-75
2021/10/23 06:53:16;;;;;;;67.80;34.35;;;11.30;99.90;;;;;;5075624;28;20085;-75
2021/10/23 06:55:41;;;;;;;64.75;32.75;;;11.30;99.90;;;;;;5094332;28;20031;-75
2021/10/23 06:58:07;;;;;;;67.43;33.72;;;11.40;99.90;;;;;;5093798;28;20062;-75
2021/10/23 07:00:33;;;;;;;63.63;35.30;;;11.40;99.90;;;;;;5093973;28;20024;-75
2021/10/23 07:02:58;;;;;;;64.53;35.10;;;11.40;99.90;;;;;;5093720;28;20032;-75
2021/10/23 07:05:25;;;;;;;81.57;42.17;;;11.40;99.90;;;;;;5093814;28;20020;-75
2021/10/23 07:07:51;;;;;;;68.70;39.90;;;11.40;99.90;;;;;;5090870;28;20028;-75
2021/10/23 07:10:17;;;;;;;88.88;46.20;;;11.40;99.90;;;;;;5094100;28;20024;-76
2021/10/23 07:12:43;;;;;;;84.20;45.20;;;11.40;99.90;;;;;;5093606;28;20028;-75
2021/10/23 07:15:09;;;;;;;96.25;49.38;;;11.40;99.90;;;;;;5093560;28;20032;-75
2021/10/23 07:17:34;;;;;;;80.65;46.90;;;11.40;99.90;;;;;;5093507;28;20019;-75
2021/10/23 07:20:00;;;;;;;101.13;50.53;;;11.40;99.90;;;;;;5093602;28;20051;-75
2021/10/23 07:22:26;;;;;;;89.00;48.15;;;11.50;99.90;;;;;;5093364;28;20081;-75
2021/10/23 07:24:52;;;;;;;79.35;41.60;;;11.40;99.90;;;;;;5092403;28;20019;-75
2021/10/23 07:27:17;;;;;;;75.55;38.90;;;11.40;99.90;;;;;;5093141;28;20026;-76
2021/10/23 07:29:43;;;;;;;79.38;40.42;;;11.50;99.90;;;;;;5077436;28;20096;-76
2021/10/23 07:32:08;;;;;;;153.07;52.63;;;11.40;99.90;;;;;;5075985;28;20085;-76
2021/10/23 07:34:35;;;;;;;88.75;44.83;;;11.40;99.90;;;;;;5087088;28;20031;-76
2021/10/23 07:37:00;;;;;;;104.63;48.45;;;11.40;99.90;;;;;;5084537;28;20024;-76
2021/10/23 07:39:26;;;;;;;72.30;37.92;;;11.50;99.90;;;;;;5081179;28;20070;-76
2021/10/23 07:41:51;;;;;;;101.60;49.05;;;11.40;99.90;;;;;;5065444;28;20051;-76
2021/10/23 07:44:17;;;;;;;102.85;49.40;;;11.50;99.90;;;;;;5081004;28;20103;-76
2021/10/23 07:46:44;;;;;;;99.20;46.15;;;11.40;99.90;;;;;;5081942;28;20080;-76
2021/10/23 07:49:10;;;;;;;105.85;47.55;;;11.40;99.90;;;;;;5073625;28;20533;-76
2021/10/23 07:51:36;;;;;;;96.20;46.17;;;11.40;99.90;;;;;;5072233;28;20031;-76
2021/10/23 07:54:09;;;;;;;107.90;49.85;;;11.50;99.90;;;;;;5092742;28;20093;-75
2021/10/23 07:56:39;;;;;;;80.75;42.28;;;11.50;99.90;;;;;;5093477;28;20024;-77
2021/10/23 07:59:04;;;;;;;69.68;40.75;;;11.60;99.90;;;;;;5092818;28;20016;-76
2021/10/23 08:01:30;;;;;;;76.00;40.85;;;11.60;99.90;;;;;;5093047;28;20468;-76
2021/10/23 08:03:56;;;;;;;83.38;43.13;;;11.70;99.90;;;;;;5092620;28;20028;-75
2021/10/23 08:06:21;;;;;;;64.00;38.35;;;11.70;99.90;;;;;;5092702;28;20042;-76
2021/10/23 08:08:47;;;;;;;66.43;36.40;;;11.70;99.90;;;;;;5090373;28;20047;-75
2021/10/23 08:11:13;;;;;;;69.95;38.28;;;11.70;99.90;;;;;;5092260;28;20028;-79
2021/10/23 08:13:38;;;;;;;82.45;42.38;;;11.80;99.90;;;;;;5092389;28;20046;-76
2021/10/23 08:16:04;;;;;;;94.55;44.65;;;11.80;99.90;;;;;;5092004;28;20501;-75
2021/10/23 08:18:31;;;;;;;79.15;43.38;;;11.80;99.90;;;;;;5092291;28;20017;-75
2021/10/23 08:20:56;;;;;;;83.50;41.38;;;11.90;99.90;;;;;;5092668;28;20032;-75
2021/10/23 08:23:23;;;;;;;84.35;44.33;;;12.00;99.90;;;;;;5085732;28;20027;-75
2021/10/23 08:25:51;;;;;;;113.72;49.58;;;12.00;99.90;;;;;;5083569;28;20066;-76
2021/10/23 08:28:16;;;;;;;91.70;44.78;;;11.90;99.90;;;;;;5083474;28;20039;-76
2021/10/23 08:30:42;;;;;;;103.55;45.25;;;11.90;99.90;;;;;;5083108;28;20021;-74
2021/10/23 08:33:08;;;;;;;107.80;47.88;;;11.80;99.90;;;;;;5090290;28;20029;-74
2021/10/23 08:35:33;;;;;;;90.70;45.72;;;11.80;99.90;;;;;;5092825;28;20372;-74
2021/10/23 08:37:59;;;;;;;105.70;46.92;;;11.80;99.90;;;;;;5092113;28;20024;-73
2021/10/23 08:40:26;;;;;;;104.40;47.95;;;11.70;99.90;;;;;;5092711;28;20028;-74
2021/10/23 08:42:53;;;;;;;105.97;45.47;;;11.80;99.90;;;;;;5092220;28;20032;-75
2021/10/23 08:45:19;;;;;;;108.28;49.08;;;11.70;99.90;;;;;;5092221;28;20385;-75
2021/10/23 08:47:46;;;;;;;99.78;46.20;;;11.80;99.90;;;;;;5089148;28;20025;-76
2021/10/23 08:50:15;;;;;;;114.60;48.38;;;11.80;99.90;;;;;;5057046;28;20561;-73
2021/10/23 08:52:43;;;;;;;119.28;51.33;;;11.80;99.90;;;;;;5077668;28;20042;-73
2021/10/23 08:55:09;;;;;;;110.70;49.63;;;11.80;99.90;;;;;;5082197;28;20442;-73
2021/10/23 08:57:35;;;;;;;110.47;49.47;;;11.80;99.90;;;;;;5063908;28;20012;-74
2021/10/23 09:00:03;;;;;;;99.30;44.10;;;11.80;99.90;;;;;;5089498;28;20107;-74
2021/10/23 09:02:28;;;;;;;115.05;47.33;;;11.90;99.90;;;;;;5082160;28;20089;-72
2021/10/23 09:04:56;;;;;;;101.88;45.28;;;11.90;99.90;;;;;;5090171;28;20028;-74
2021/10/23 09:07:23;;;;;;;91.90;42.63;;;11.90;99.90;;;;;;5093697;28;20107;-74
2021/10/23 09:09:55;;;;;;;107.38;49.45;;;12.00;99.90;;;;;;5077114;28;20383;-74
2021/10/23 09:12:24;;;;;;;118.38;46.97;;;12.10;99.90;;;;;;5093501;28;20116;-74
2021/10/23 09:14:59;;;;;;;103.10;47.08;;;12.10;99.90;;;;;;5089309;28;20032;-74
2021/10/23 09:17:26;;;;;;;107.22;46.17;;;12.00;99.90;;;;;;5091763;28;20479;-74
2021/10/23 09:19:53;;;;;;;96.72;44.38;;;12.10;99.90;;;;;;5086903;28;20567;-74
2021/10/23 09:22:38;;;;;;;100.78;45.88;;;12.10;99.90;;;;;;5094234;28;20024;-76
2021/10/23 09:25:22;;;;;;;98.78;45.47;;;12.10;99.90;;;;;;5077235;28;20024;-77
2021/10/23 09:27:55;;;;;;;101.70;47.25;;;12.20;99.90;;;;;;5093680;28;20027;-75
2021/10/23 09:30:32;;;;;;;100.57;46.45;;;12.10;99.90;;;;;;5078727;28;20047;-75
2021/10/23 09:33:04;;;;;;;92.53;44.58;;;12.10;99.90;;;;;;5078598;28;20028;-75
2021/10/23 09:35:30;;;;;;;100.60;45.28;;;12.00;99.90;;;;;;5095887;28;20129;-73
2021/10/23 09:37:58;;;;;;;90.65;45.28;;;12.10;99.90;;;;;;5095266;28;20111;-74
2021/10/23 09:40:26;;;;;;;89.93;44.65;;;12.10;99.90;;;;;;5091342;28;20107;-74
2021/10/23 09:43:28;;;;;;;92.30;46.33;;;12.20;99.90;;;;;;5076101;28;20036;-75
2021/10/23 09:46:00;;;;;;;84.17;40.97;;;12.20;99.90;;;;;;5062343;28;20062;-74
2021/10/23 09:48:43;;;;;;;83.63;41.70;;;12.20;99.90;;;;;;5086923;28;20297;-74
2021/10/23 09:51:11;;;;;;;88.00;42.33;;;12.20;99.90;;;;;;5084535;28;20020;-74
2021/10/23 09:53:38;;;;;;;84.38;41.67;;;12.30;99.90;;;;;;5079402;28;20039;-75
2021/10/23 09:56:08;;;;;;;79.50;41.38;;;12.30;99.90;;;;;;5090944;28;20023;-74
2021/10/23 09:58:34;;;;;;;72.35;38.95;;;12.30;99.90;;;;;;5078831;28;20016;-74
2021/10/23 10:01:00;;;;;;;78.20;39.58;;;12.20;99.90;;;;;;5089564;28;20101;-77
2021/10/23 10:03:26;;;;;;;77.18;39.58;;;12.20;99.90;;;;;;5092201;28;20084;-74
2021/10/23 10:05:59;;;;;;;76.25;39.22;;;12.20;99.90;;;;;;5092277;28;20108;-77
2021/10/23 10:08:26;;;;;;;76.80;39.10;;;12.20;99.90;;;;;;5090369;28;20016;-75
2021/10/23 10:10:53;;;;;;;74.03;38.20;;;12.10;99.90;;;;;;5091574;28;20452;-75
2021/10/23 10:13:24;;;;;;;68.35;37.05;;;12.20;99.90;;;;;;5081648;28;20376;-75
2021/10/23 10:15:59;;;;;;;67.53;38.80;;;12.30;99.90;;;;;;5068383;28;20609;-75
2021/10/23 10:18:25;;;;;;;66.97;36.85;;;12.40;99.90;;;;;;5081396;28;20480;-75
2021/10/23 10:20:53;;;;;;;66.57;37.63;;;12.60;99.90;;;;;;5084859;28;20038;-75
2021/10/23 10:23:27;;;;;;;62.88;35.97;;;12.60;99.90;;;;;;5076407;28;20048;-74
2021/10/23 10:26:21;;;;;;;79.80;41.90;;;12.60;99.90;;;;;;5090481;28;20024;-75
2021/10/23 10:29:13;;;;;;;64.47;38.58;;;12.60;99.90;;;;;;5090598;28;20522;-75
2021/10/23 10:31:48;;;;;;;59.83;33.83;;;12.60;99.90;;;;;;5068682;28;20464;-77
2021/10/23 10:39:55;;;;;;;57.78;36.70;;;12.60;99.90;;;;;;5084071;28;20115;-76
2021/10/23 10:42:45;;;;;;;61.33;32.22;;;12.80;99.90;;;;;;5090650;28;20024;-76
2021/10/23 10:45:28;;;;;;;56.95;32.30;;;12.80;99.90;;;;;;5093137;28;20028;-76
2021/10/23 10:48:22;;;;;;;60.00;33.70;;;12.90;99.90;;;;;;5093245;28;20352;-76
2021/10/23 10:51:07;;;;;;;58.75;33.28;;;13.00;99.90;;;;;;5094318;28;20023;-76
2021/10/23 10:53:43;;;;;;;57.83;32.60;;;13.00;99.90;;;;;;5092881;28;20020;-77
2021/10/23 10:56:11;;;;;;;53.67;32.42;;;13.10;99.90;;;;;;5092560;28;20021;-75
2021/10/23 10:58:41;;;;;;;53.45;30.73;;;13.10;99.90;;;;;;5087002;28;20073;-74
2021/10/23 11:01:11;;;;;;;56.65;32.30;;;13.00;99.90;;;;;;5076810;28;20067;-75
2021/10/23 11:03:43;;;;;;;56.40;31.90;;;13.00;99.90;;;;;;5084243;28;20099;-75
2021/10/23 11:06:31;;;;;;;47.30;30.77;;;13.00;99.90;;;;;;5080996;28;20110;-75
2021/10/23 11:09:11;;;;;;;47.25;29.08;;;13.00;99.90;;;;;;5090890;28;20480;-75
2021/10/23 11:14:24;;;;;;;55.10;29.80;;;13.10;99.90;;;;;;5073124;28;20044;-75
2021/10/23 11:16:53;;;;;;;47.40;30.67;;;13.10;99.90;;;;;;5072142;28;20020;-74
2021/10/23 11:19:36;;;;;;;44.42;29.33;;;13.00;99.90;;;;;;5072759;28;20078;-75
2021/10/23 11:22:09;;;;;;;47.28;31.33;;;12.90;99.90;;;;;;5073011;28;20496;-76
2021/10/23 11:24:46;;;;;;;49.70;29.50;;;12.90;99.90;;;;;;5072626;28;20031;-75
2021/10/23 11:27:25;;;;;;;48.92;26.83;;;12.80;99.90;;;;;;5072395;28;20024;-77
2021/10/23 11:30:10;;;;;;;48.13;25.95;;;12.80;99.90;;;;;;5087100;28;20028;-77
2021/10/23 11:32:45;;;;;;;38.08;25.48;;;12.90;99.90;;;;;;5056851;28;20017;-77
2021/10/23 11:35:11;;;;;;;35.75;24.45;;;12.90;99.90;;;;;;5092336;28;20024;-77
2021/10/23 11:37:37;;;;;;;41.95;25.70;;;12.90;99.90;;;;;;5093090;28;20032;-78
2021/10/23 11:40:11;;;;;;;38.97;24.15;;;12.90;99.90;;;;;;5074727;28;20052;-78
2021/10/23 11:42:45;;;;;;;35.67;22.52;;;12.90;99.90;;;;;;5092090;28;20039;-78
2021/10/23 11:45:25;;;;;;;35.83;22.77;;;13.00;99.90;;;;;;5091887;28;20434;-78
2021/10/23 11:47:55;;;;;;;35.75;23.45;;;13.10;99.90;;;;;;5092898;28;20078;-77
2021/10/23 11:50:23;;;;;;;35.75;22.80;;;13.30;99.90;;;;;;5074526;28;20027;-78
2021/10/23 11:52:54;;;;;;;34.70;22.27;;;13.30;99.90;;;;;;5092800;28;20024;-78
2021/10/23 11:55:37;;;;;;;40.70;24.08;;;13.40;99.90;;;;;;5091930;28;20035;-78
2021/10/23 11:58:05;;;;;;;34.60;21.75;;;13.50;99.90;;;;;;5088637;28;20804;-78
2021/10/23 12:00:38;;;;;;;37.08;22.08;;;13.40;99.90;;;;;;5075334;28;20025;-78
2021/10/23 12:03:07;;;;;;;34.70;20.23;;;13.50;99.90;;;;;;5087841;28;20040;-77
2021/10/23 12:05:51;;;;;;;30.92;20.63;;;13.40;99.90;;;;;;5091695;28;20458;-77
2021/10/23 12:08:24;;;;;;;36.33;19.20;;;13.40;99.90;;;;;;5090783;28;20043;-77
2021/10/23 12:11:33;;;;;;;36.40;19.83;;;13.50;99.90;;;;;;5090988;28;20020;-78
2021/10/23 12:14:02;;;;;;;26.83;17.10;;;13.80;99.90;;;;;;5092289;28;20024;-78
2021/10/23 12:16:47;;;;;;;28.40;17.60;;;13.80;99.90;;;;;;5085799;28;20040;-78
2021/10/23 12:19:16;;;;;;;28.55;17.27;;;13.90;99.90;;;;;;5091932;28;20028;-79
2021/10/23 12:22:01;;;;;;;24.73;15.35;;;14.10;99.90;;;;;;5091904;28;20111;-83
2021/10/23 12:24:39;;;;;;;25.23;14.60;;;14.00;99.90;;;;;;5090402;28;20068;-82
2021/10/23 12:27:07;;;;;;;24.75;14.52;;;13.90;99.90;;;;;;5058845;28;20028;-79
2021/10/23 12:29:52;;;;;;;26.42;14.70;;;14.00;99.90;;;;;;5084826;28;20107;-72
2021/10/23 12:32:20;;;;;;;26.50;15.68;;;14.10;99.90;;;;;;5087728;28;20017;-75
2021/10/23 12:34:52;;;;;;;22.58;14.05;;;14.00;99.90;;;;;;5087359;28;20476;-73
2021/10/23 12:37:26;;;;;;;26.42;14.15;;;14.00;99.90;;;;;;5096283;28;20047;-77
2021/10/23 12:40:13;;;;;;;24.83;14.85;;;14.20;99.90;;;;;;5094961;28;20425;-77